Colona, Colorado
Current Conditions -  °F | °C
As of 1:53 PM on Saturday 22 Nov 2014 (Local Time) from KMTJ Reporting Station
Clear Clear  
Wind Chill: 52°   Ceiling: Unl
Heat Index: 52°   Visibility: 10mi
Dew Point: 21°   Wind: 5mph
Humidity: 30%   Direction: 20°NNE
Pressure: 29.89"   Gusts: NA
Location:  38.4027°N, 107.89°W
Report Text: KMTJ 222053Z AUTO 02004KT 10SM CLR 11/M06 A2989 RMK AO2 SLP100 T01111061 56039
Loading
Personal Weather Stations






























Interactive Weather Map New forecast layout! Learn more

10-Day Weather Forecast

Advertisements
Track Severe Weather on mobile